Digges, Canada
Current Conditions -  °F | °C
As of 8:00 PM on Friday 19 Dec 2014 (Local Time) from CYYQ Reporting Station
Light Snow Light Snow  
Wind Chill:   Ceiling: 3000
Heat Index: 16°   Visibility: 15mi
Dew Point: 14°   Wind: 15mph
Humidity: 93%   Direction: 320°NW
Pressure: 29.95"   Gusts: NA
Location:  58.57°N, 94.12°W
Report Text: CYYQ 200200Z 32013KT 15SM -SN SCT011 OVC030 M09/M10 A2995 RMK SC4SC4 SLP146
Loading
Personal Weather Stations






























Interactive Weather Map New forecast layout! Learn more

10-Day Weather Forecast

Advertisements
Track Severe Weather on mobile